createdAt,value
2022-10-24T00:01:27.640Z,90.40
2022-10-24T00:04:29.552Z,90.40
2022-10-24T00:07:31.427Z,90.70
2022-10-24T00:10:33.350Z,90.60
2022-10-24T00:13:35.268Z,90.40
2022-10-24T00:16:39.759Z,90.20
2022-10-24T00:19:41.601Z,90.00
2022-10-24T00:22:43.668Z,89.70
2022-10-24T00:25:46.773Z,89.40
2022-10-24T00:28:48.694Z,89.10
2022-10-24T00:31:50.674Z,89.00
2022-10-24T00:34:52.529Z,88.70
2022-10-24T00:37:54.428Z,88.90
2022-10-24T00:40:56.505Z,88.90
2022-10-24T00:44:29.198Z,88.90
2022-10-24T00:47:31.221Z,88.30
2022-10-24T00:50:33.429Z,88.00
2022-10-24T00:53:40.595Z,88.20
2022-10-24T00:56:53.795Z,88.10
2022-10-24T01:00:00.658Z,88.10
2022-10-24T01:03:02.705Z,87.90
2022-10-24T01:06:10.718Z,88.20
2022-10-24T01:09:15.698Z,88.50
2022-10-24T01:12:39.601Z,88.60
2022-10-24T01:16:13.385Z,89.10
2022-10-24T01:19:36.080Z,88.80
2022-10-24T01:23:00.969Z,89.30
2022-10-24T01:26:23.759Z,89.50
2022-10-24T01:29:48.507Z,89.80
2022-10-24T01:32:58.990Z,89.20
2022-10-24T01:36:10.744Z,89.50
2022-10-24T01:39:19.422Z,89.80
2022-10-24T01:42:24.471Z,89.40
2022-10-24T01:45:33.247Z,89.30
2022-10-24T01:48:46.725Z,89.10
2022-10-24T01:51:52.431Z,88.80
2022-10-24T01:54:54.706Z,89.20
2022-10-24T01:57:56.561Z,89.20
2022-10-24T02:01:03.084Z,89.40
2022-10-24T02:04:11.079Z,89.50
2022-10-24T02:07:15.121Z,89.70
2022-10-24T02:10:25.198Z,89.30
2022-10-24T02:13:35.636Z,89.30
2022-10-24T02:16:37.868Z,89.30
2022-10-24T02:19:39.926Z,89.30
2022-10-24T02:23:00.959Z,89.10
2022-10-24T02:26:09.454Z,89.30
2022-10-24T02:29:17.850Z,89.50
2022-10-24T02:32:22.684Z,89.30
2022-10-24T02:35:29.966Z,89.10
2022-10-24T02:38:38.832Z,89.40
2022-10-24T02:41:43.439Z,89.00
2022-10-24T02:44:47.065Z,89.00
2022-10-24T02:47:52.911Z,89.20
2022-10-24T02:50:54.851Z,89.70
2022-10-24T02:53:58.360Z,89.70
2022-10-24T02:57:02.322Z,89.90
2022-10-24T03:00:05.824Z,89.70
2022-10-24T03:03:07.833Z,89.90
2022-10-24T03:06:11.995Z,89.40
2022-10-24T03:09:13.981Z,90.00
2022-10-24T03:12:16.910Z,89.50
2022-10-24T03:15:19.045Z,89.70
2022-10-24T03:18:21.072Z,89.50
2022-10-24T03:21:23.350Z,89.50
2022-10-24T03:24:36.978Z,89.80
2022-10-24T03:27:49.853Z,90.10
2022-10-24T03:30:52.067Z,89.40
2022-10-24T03:33:53.962Z,89.10
2022-10-24T03:36:55.826Z,89.50
2022-10-24T03:39:57.749Z,89.80
2022-10-24T03:42:59.621Z,89.60
2022-10-24T03:46:01.558Z,89.20
2022-10-24T03:49:03.390Z,89.10
2022-10-24T03:52:05.736Z,89.70
2022-10-24T03:55:07.678Z,89.30
2022-10-24T03:58:09.677Z,89.90
2022-10-24T04:01:12.301Z,89.50
2022-10-24T04:04:14.254Z,89.80
2022-10-24T04:07:19.660Z,89.70
2022-10-24T04:10:21.685Z,89.50
2022-10-24T04:13:23.631Z,89.80
2022-10-24T04:16:25.536Z,90.30
2022-10-24T04:19:27.442Z,89.80
2022-10-24T04:22:29.279Z,89.80
2022-10-24T04:25:31.413Z,89.80
2022-10-24T04:28:35.829Z,89.80
2022-10-24T04:31:37.843Z,90.10
2022-10-24T04:34:39.705Z,90.60
2022-10-24T04:37:41.585Z,90.30
2022-10-24T04:40:52.556Z,90.50
2022-10-24T04:43:54.500Z,89.60
2022-10-24T04:46:56.464Z,89.20
2022-10-24T04:49:58.640Z,89.50
2022-10-24T04:53:00.591Z,89.70
2022-10-24T04:56:02.481Z,88.80
2022-10-24T04:59:04.409Z,87.90
2022-10-24T05:02:06.493Z,86.90
2022-10-24T05:05:08.699Z,86.40
2022-10-24T05:08:10.567Z,86.00
2022-10-24T05:11:12.412Z,85.30
2022-10-24T05:14:14.277Z,85.50
2022-10-24T05:17:16.588Z,84.80
2022-10-24T05:20:18.639Z,85.30
2022-10-24T05:23:20.585Z,85.50
2022-10-24T05:26:22.444Z,85.40
2022-10-24T05:29:24.314Z,86.10
2022-10-24T05:32:26.455Z,86.00
2022-10-24T05:35:28.314Z,86.10
2022-10-24T05:38:30.146Z,86.20
2022-10-24T05:41:32.148Z,87.50
2022-10-24T05:44:34.300Z,86.80
2022-10-24T05:47:36.338Z,86.40
2022-10-24T05:50:38.261Z,87.40
2022-10-24T05:53:40.228Z,85.80
2022-10-24T05:56:42.219Z,86.60
2022-10-24T05:59:46.729Z,85.70
2022-10-24T06:02:51.459Z,86.10
2022-10-24T06:05:53.630Z,86.10
2022-10-24T06:08:55.553Z,86.70
2022-10-24T06:11:57.482Z,87.00
2022-10-24T06:15:00.224Z,87.50
2022-10-24T06:18:02.121Z,87.80
2022-10-24T06:21:06.164Z,88.40
2022-10-24T06:24:08.162Z,89.30
2022-10-24T06:27:13.942Z,89.80
2022-10-24T06:30:16.174Z,88.70
2022-10-24T06:33:18.323Z,88.60
2022-10-24T06:36:20.341Z,89.00
2022-10-24T06:39:22.258Z,89.40
2022-10-24T06:42:24.169Z,89.50
2022-10-24T06:45:26.200Z,89.50
2022-10-24T06:48:27.992Z,89.50
2022-10-24T06:51:29.869Z,89.60
2022-10-24T06:54:31.758Z,88.70
2022-10-24T06:57:36.070Z,88.00
2022-10-24T07:00:38.287Z,87.70
2022-10-24T07:03:40.280Z,87.20
2022-10-24T07:06:42.223Z,87.20
2022-10-24T07:09:44.755Z,86.90
2022-10-24T07:12:47.067Z,86.40
2022-10-24T07:15:49.153Z,86.50
2022-10-24T07:18:51.046Z,86.60
2022-10-24T07:21:53.175Z,86.90
2022-10-24T07:24:55.147Z,87.00
2022-10-24T07:27:57.007Z,87.20
2022-10-24T07:30:59.319Z,88.10
2022-10-24T07:34:03.589Z,88.60
2022-10-24T07:37:05.589Z,88.90
2022-10-24T07:40:08.139Z,87.30
2022-10-24T07:43:10.191Z,87.80
2022-10-24T07:46:14.754Z,86.30
2022-10-24T07:49:16.770Z,85.80
2022-10-24T07:52:18.640Z,85.10
2022-10-24T07:55:20.545Z,85.40
2022-10-24T07:58:22.355Z,85.10
2022-10-24T08:01:25.824Z,85.50
2022-10-24T08:04:27.750Z,86.00
2022-10-24T08:07:29.744Z,85.80
2022-10-24T08:10:31.789Z,86.50
2022-10-24T08:13:33.903Z,85.10
2022-10-24T08:16:35.846Z,84.20
2022-10-24T08:19:41.150Z,83.70
2022-10-24T08:22:45.962Z,84.10
2022-10-24T08:25:48.099Z,84.20
2022-10-24T08:28:50.558Z,83.20
2022-10-24T08:31:55.305Z,83.40
2022-10-24T08:34:57.304Z,84.30
2022-10-24T08:37:59.184Z,84.50
2022-10-24T08:41:01.139Z,84.60
2022-10-24T08:44:06.671Z,84.70
2022-10-24T08:47:28.819Z,84.80
2022-10-24T08:50:35.357Z,84.50
2022-10-24T08:53:38.290Z,85.50
2022-10-24T08:56:40.472Z,86.00
2022-10-24T08:59:42.245Z,85.50
2022-10-24T09:02:49.024Z,85.20
2022-10-24T09:05:55.764Z,85.50
2022-10-24T09:09:11.677Z,85.50
2022-10-24T09:12:15.992Z,84.70
2022-10-24T09:15:29.122Z,84.90
2022-10-24T09:18:40.337Z,85.80
2022-10-24T09:21:44.650Z,85.10
2022-10-24T09:24:53.621Z,84.90
2022-10-24T09:27:57.497Z,84.90
2022-10-24T09:31:04.298Z,84.30
2022-10-24T09:34:06.159Z,83.20
2022-10-24T09:37:08.181Z,83.10
2022-10-24T09:40:22.725Z,83.00
2022-10-24T09:43:43.930Z,82.60
2022-10-24T09:46:46.446Z,82.30
2022-10-24T09:49:49.058Z,81.90
2022-10-24T09:52:53.723Z,80.90
2022-10-24T09:55:59.677Z,80.30
2022-10-24T09:59:41.190Z,80.20
2022-10-24T10:03:23.638Z,79.50
2022-10-24T10:06:26.177Z,79.60
2022-10-24T10:09:29.431Z,79.20
2022-10-24T10:12:37.170Z,82.10
2022-10-24T10:15:55.551Z,81.30
2022-10-24T10:19:20.087Z,82.10
2022-10-24T10:22:23.836Z,80.50
2022-10-24T10:25:31.803Z,79.70
2022-10-24T10:28:47.967Z,78.80
2022-10-24T10:32:11.340Z,81.20
2022-10-24T10:35:24.804Z,80.20
2022-10-24T10:38:52.963Z,79.50
2022-10-24T10:42:19.975Z,82.60
2022-10-24T10:45:48.174Z,84.00
2022-10-24T10:49:05.149Z,84.10
2022-10-24T11:03:39.590Z,82.70
2022-10-24T11:06:52.029Z,81.00
2022-10-24T11:10:02.464Z,80.60
2022-10-24T11:13:12.166Z,79.80
2022-10-24T11:16:21.303Z,80.30
2022-10-24T11:19:29.601Z,79.10
2022-10-24T11:22:56.950Z,80.20
2022-10-24T11:26:15.992Z,78.70
2022-10-24T11:29:20.855Z,77.40
2022-10-24T11:32:54.855Z,77.30
2022-10-24T11:36:08.509Z,75.70
2022-10-24T11:39:22.631Z,74.80
2022-10-24T11:42:46.599Z,75.40
2022-10-24T11:45:56.407Z,75.10
2022-10-24T11:49:06.505Z,71.80
2022-10-24T11:52:21.815Z,71.90
2022-10-24T11:55:46.965Z,72.20
2022-10-24T11:58:57.612Z,71.70
2022-10-24T12:01:59.483Z,72.10
2022-10-24T12:05:07.396Z,71.90
2022-10-24T12:08:30.115Z,72.00
2022-10-24T12:11:56.866Z,72.40
2022-10-24T12:15:09.667Z,72.20
2022-10-24T12:18:23.954Z,72.10
2022-10-24T12:21:28.434Z,71.20
2022-10-24T12:24:35.642Z,70.20
2022-10-24T12:27:39.781Z,69.70
2022-10-24T12:30:41.863Z,70.40
2022-10-24T12:33:45.587Z,69.00
2022-10-24T12:37:08.368Z,68.60
2022-10-24T12:40:47.694Z,69.50
2022-10-24T12:43:50.189Z,68.60
2022-10-24T12:46:53.975Z,67.10
2022-10-24T12:49:56.488Z,67.40
2022-10-24T12:53:05.743Z,67.90
2022-10-24T12:56:12.765Z,67.10
2022-10-24T12:59:27.425Z,68.00
2022-10-24T13:02:42.904Z,67.50
2022-10-24T13:06:00.096Z,67.50
2022-10-24T13:09:35.919Z,67.30
2022-10-24T13:12:50.382Z,66.90
2022-10-24T13:16:03.238Z,67.30
2022-10-24T13:19:20.597Z,66.70
2022-10-24T13:22:33.079Z,68.20
2022-10-24T13:25:34.927Z,68.30
2022-10-24T13:28:40.503Z,67.70
2022-10-24T13:31:45.246Z,66.70
2022-10-24T13:34:54.459Z,66.80
2022-10-24T13:38:00.515Z,66.80
2022-10-24T13:41:05.148Z,67.80
2022-10-24T13:44:23.102Z,66.80
2022-10-24T13:47:30.009Z,67.80
2022-10-24T13:50:35.042Z,67.90
2022-10-24T13:54:06.747Z,67.80
2022-10-24T13:57:31.265Z,67.30
2022-10-24T14:00:37.753Z,68.40
2022-10-24T14:03:43.559Z,67.80
2022-10-24T14:06:45.558Z,68.40
2022-10-24T14:10:09.487Z,68.90
2022-10-24T14:13:17.158Z,68.60
2022-10-24T14:16:26.496Z,69.30
2022-10-24T14:19:32.500Z,69.30
2022-10-24T14:22:39.111Z,68.60
2022-10-24T14:25:42.005Z,69.80
2022-10-24T14:28:50.568Z,69.30
2022-10-24T14:31:58.279Z,69.30
2022-10-24T14:38:08.807Z,69.00
2022-10-24T14:41:11.749Z,68.90
2022-10-24T14:44:16.290Z,69.80
2022-10-24T14:47:26.780Z,69.70
2022-10-24T14:50:39.988Z,69.70
2022-10-24T14:53:44.730Z,69.30
2022-10-24T14:56:47.120Z,69.80
2022-10-24T14:59:53.536Z,70.90
2022-10-24T15:02:58.131Z,71.20
2022-10-24T15:06:11.301Z,69.70
2022-10-24T15:09:13.104Z,69.50
2022-10-24T15:12:15.073Z,68.60
2022-10-24T15:15:31.799Z,69.00
2022-10-24T15:18:43.133Z,69.20
2022-10-24T15:21:47.346Z,69.80
2022-10-24T15:24:52.858Z,69.60
2022-10-24T15:27:55.024Z,69.40
2022-10-24T15:30:56.870Z,69.60
2022-10-24T15:34:05.437Z,70.10
2022-10-24T15:37:17.701Z,69.70
2022-10-24T15:40:25.776Z,70.50
2022-10-24T15:43:27.691Z,70.60
2022-10-24T15:46:29.671Z,70.80
2022-10-24T15:49:33.783Z,70.80
2022-10-24T15:52:35.859Z,70.90
2022-10-24T15:55:37.638Z,71.30
2022-10-24T15:58:40.694Z,71.20
2022-10-24T16:01:47.631Z,71.40
2022-10-24T16:04:50.250Z,71.90
2022-10-24T16:07:52.420Z,71.80
2022-10-24T16:10:54.338Z,71.80
2022-10-24T16:13:56.610Z,72.60
2022-10-24T16:16:58.914Z,73.00
2022-10-24T16:20:00.773Z,73.30
2022-10-24T16:23:03.630Z,74.50
2022-10-24T16:26:05.624Z,73.80
2022-10-24T16:29:07.980Z,73.70
2022-10-24T16:32:11.163Z,73.80
2022-10-24T16:35:22.633Z,74.00
2022-10-24T16:38:24.761Z,74.30
2022-10-24T16:41:27.361Z,74.00
2022-10-24T16:44:36.232Z,74.20
2022-10-24T16:47:38.145Z,74.40
2022-10-24T16:50:43.249Z,74.80
2022-10-24T16:53:45.083Z,75.40
2022-10-24T16:56:52.421Z,76.20
2022-10-24T16:59:55.517Z,77.40
2022-10-24T17:02:57.548Z,77.70
2022-10-24T17:06:01.667Z,80.10
2022-10-24T17:09:03.862Z,80.00
2022-10-24T17:12:07.809Z,80.40
2022-10-24T17:15:10.580Z,81.40
2022-10-24T17:18:13.222Z,81.20
2022-10-24T17:21:15.126Z,81.40
2022-10-24T17:24:24.564Z,81.60
2022-10-24T17:27:26.638Z,81.10
2022-10-24T17:30:29.427Z,80.60
2022-10-24T17:33:35.114Z,80.50
2022-10-24T17:36:40.212Z,80.00
2022-10-24T17:40:11.678Z,80.60
2022-10-24T17:43:27.785Z,80.70
2022-10-24T17:46:30.290Z,80.70
2022-10-24T17:49:33.347Z,81.60
2022-10-24T17:52:35.533Z,81.30
2022-10-24T17:55:52.746Z,81.80
2022-10-24T17:58:54.697Z,81.90
2022-10-24T18:01:56.729Z,82.30
2022-10-24T18:04:58.734Z,81.70
2022-10-24T18:08:00.640Z,78.80
2022-10-24T18:11:04.625Z,79.10
2022-10-24T18:14:06.748Z,79.10
2022-10-24T18:17:08.680Z,78.70
2022-10-24T18:20:11.035Z,78.20
2022-10-24T18:23:12.859Z,78.20
2022-10-24T18:26:20.309Z,78.40
2022-10-24T18:29:22.167Z,78.30
2022-10-24T18:32:24.218Z,77.90
2022-10-24T18:35:26.161Z,78.00
2022-10-24T18:38:27.963Z,78.10
2022-10-24T18:41:41.917Z,78.70
2022-10-24T18:44:50.167Z,78.50
2022-10-24T18:47:53.942Z,78.50
2022-10-24T18:50:55.948Z,78.50
2022-10-24T18:54:03.409Z,78.10
2022-10-24T18:57:32.681Z,78.10
2022-10-24T19:00:35.464Z,77.80
2022-10-24T19:03:37.447Z,78.20
2022-10-24T19:06:40.866Z,77.70
2022-10-24T19:09:42.831Z,77.80
2022-10-24T19:12:45.075Z,77.80
2022-10-24T19:16:01.379Z,77.20
2022-10-24T19:19:03.588Z,76.70
2022-10-24T19:22:05.569Z,77.20
2022-10-24T19:25:10.696Z,76.10
2022-10-24T19:28:16.864Z,76.50
2022-10-24T19:31:22.908Z,77.00
2022-10-24T19:34:24.699Z,76.60
2022-10-24T19:37:26.752Z,76.70
2022-10-24T19:40:28.951Z,76.00
2022-10-24T19:43:31.290Z,76.00
2022-10-24T19:46:33.146Z,76.00
2022-10-24T19:49:35.073Z,75.90
2022-10-24T19:52:37.214Z,76.00
2022-10-24T19:55:39.315Z,76.30
2022-10-24T19:58:41.928Z,77.20
2022-10-24T20:01:43.934Z,76.80
2022-10-24T20:04:49.012Z,77.40
2022-10-24T20:07:51.173Z,77.70
2022-10-24T20:10:53.946Z,78.00
2022-10-24T20:13:55.950Z,78.20
2022-10-24T20:16:57.792Z,78.70
2022-10-24T20:19:59.883Z,79.20
2022-10-24T20:23:02.498Z,79.10
2022-10-24T20:26:12.319Z,79.30
2022-10-24T20:29:14.287Z,79.50
2022-10-24T20:32:16.208Z,79.70
2022-10-24T20:35:18.134Z,79.60
2022-10-24T20:38:20.087Z,80.40
2022-10-24T20:41:22.005Z,80.80
2022-10-24T20:44:24.149Z,80.30
2022-10-24T20:47:31.466Z,80.30
2022-10-24T20:50:33.773Z,80.30
2022-10-24T20:53:35.546Z,80.20
2022-10-24T20:56:41.963Z,80.10
2022-10-24T20:59:44.292Z,79.60
2022-10-24T21:02:46.631Z,79.90
2022-10-24T21:05:48.720Z,80.00
2022-10-24T21:08:52.230Z,79.80
2022-10-24T21:11:54.069Z,79.90
2022-10-24T21:14:56.126Z,78.80
2022-10-24T21:17:58.056Z,79.20
2022-10-24T21:21:06.208Z,79.40
2022-10-24T21:24:12.273Z,79.00
2022-10-24T21:27:14.132Z,78.90
2022-10-24T21:30:16.045Z,78.60
2022-10-24T21:33:18.006Z,78.60
2022-10-24T21:36:21.989Z,78.00
2022-10-24T21:39:23.849Z,78.00
2022-10-24T21:42:25.655Z,77.90
2022-10-24T21:45:27.597Z,77.30
2022-10-24T21:48:30.649Z,77.50
2022-10-24T21:51:35.548Z,78.20
2022-10-24T21:54:37.435Z,77.80
2022-10-24T21:57:39.431Z,77.70
2022-10-24T22:00:41.266Z,77.90
2022-10-24T22:03:43.941Z,77.90
2022-10-24T22:06:45.886Z,78.60
2022-10-24T22:09:47.817Z,77.80
2022-10-24T22:12:49.903Z,77.90
2022-10-24T22:15:51.752Z,78.10
2022-10-24T22:18:54.028Z,78.50
2022-10-24T22:21:56.001Z,78.30
2022-10-24T22:24:57.820Z,78.40
2022-10-24T22:27:59.821Z,78.20
2022-10-24T22:31:01.856Z,78.20
2022-10-24T22:34:06.115Z,78.10
2022-10-24T22:37:27.740Z,78.20
2022-10-24T22:40:31.492Z,78.30
2022-10-24T22:43:33.651Z,78.10
2022-10-24T22:46:48.110Z,78.40
2022-10-24T22:49:59.140Z,78.70
2022-10-24T22:53:03.823Z,78.50
2022-10-24T22:56:11.532Z,79.70
2022-10-24T22:59:13.781Z,80.10
2022-10-24T23:02:28.265Z,79.60
2022-10-24T23:05:33.935Z,80.00
2022-10-24T23:08:39.804Z,80.00
2022-10-24T23:11:41.967Z,81.20
2022-10-24T23:14:45.070Z,81.20
2022-10-24T23:17:48.044Z,81.60
2022-10-24T23:21:02.517Z,82.20
2022-10-24T23:24:09.029Z,81.20
2022-10-24T23:27:38.252Z,81.30
2022-10-24T23:30:40.529Z,81.50
2022-10-24T23:33:42.691Z,81.70
2022-10-24T23:36:45.566Z,82.10
2022-10-24T23:39:47.810Z,82.10
2022-10-24T23:42:50.892Z,82.20
2022-10-24T23:46:10.295Z,82.30
2022-10-24T23:49:17.902Z,81.80
2022-10-24T23:52:47.581Z,81.30
2022-10-24T23:55:51.116Z,81.40
2022-10-24T23:58:53.400Z,81.20
